TDPD/DOM METAR and TAF weather

Enter ICAO airport designator
Station Type Date Time Source
TDPD METAR 2024/04/15 00:00 UTC NOAA

TDPD 150000Z 13005KT 9999 FEW020 27/24 Q1014


Station Type Date Time Source
TDPD Decoded METAR 2024/04/15 00:00 UTC NOAA

Melville Hall Airport, Dominica (TDPD) 15-32N 061-18W 14M
Apr 14, 2024 - 08:00 PM EDT / 2024.04.15 0000 UTC
Wind: from the SE (130 degrees) at 6 MPH (5 KT):0
Visibility: greater than 7 mile(s):0
Sky conditions: mostly clear
Temperature: 80 F (27 C)
Dew Point: 75 F (24 C)
Relative Humidity: 83%
Pressure (altimeter): 29.94 in. Hg (1014 hPa)
ob: TDPD 150000Z 13005KT 9999 FEW020 27/24 Q1014
cycle: 0

Station Type Date Time Source
TDPD TAF 2024/04/15 06:39 UTC NOAA